createdAt,value
2023-04-15T00:01:45.286Z,66.12
2023-04-15T00:04:41.438Z,66.31
2023-04-15T00:07:36.886Z,66.45
2023-04-15T00:10:33.037Z,66.65
2023-04-15T00:13:35.284Z,66.82
2023-04-15T00:16:31.649Z,66.89
2023-04-15T00:19:42.887Z,67.21
2023-04-15T00:22:33.586Z,67.36
2023-04-15T00:25:37.620Z,67.39
2023-04-15T00:28:33.823Z,67.52
2023-04-15T00:31:35.572Z,67.69
2023-04-15T00:34:38.071Z,67.51
2023-04-15T00:37:49.250Z,67.72
2023-04-15T00:40:49.105Z,67.76
2023-04-15T00:43:48.974Z,67.78
2023-04-15T00:46:45.618Z,67.88
2023-04-15T00:49:41.653Z,67.91
2023-04-15T00:52:37.307Z,67.86
2023-04-15T00:55:31.374Z,68.03
2023-04-15T00:58:28.163Z,68.36
2023-04-15T01:01:28.943Z,68.50
2023-04-15T01:04:19.574Z,68.67
2023-04-15T01:07:19.716Z,68.84
2023-04-15T01:10:11.331Z,69.12
2023-04-15T01:13:11.205Z,69.30
2023-04-15T01:16:08.865Z,69.47
2023-04-15T01:19:19.806Z,69.67
2023-04-15T01:22:13.252Z,69.79
2023-04-15T01:25:10.767Z,70.01
2023-04-15T01:28:22.037Z,70.17
2023-04-15T01:31:32.220Z,70.27
2023-04-15T01:34:23.593Z,70.32
2023-04-15T01:37:17.642Z,70.31
2023-04-15T01:40:17.371Z,70.24
2023-04-15T01:43:13.735Z,70.20
2023-04-15T01:46:10.069Z,70.18
2023-04-15T01:49:01.164Z,70.15
2023-04-15T01:52:12.439Z,70.39
2023-04-15T01:55:09.982Z,70.51
2023-04-15T01:58:20.912Z,70.63
2023-04-15T02:01:17.247Z,70.76
2023-04-15T02:04:09.905Z,70.92
2023-04-15T02:07:06.060Z,70.97
2023-04-15T02:09:56.850Z,71.04
2023-04-15T02:12:50.742Z,71.20
2023-04-15T02:15:41.904Z,71.26
2023-04-15T02:18:52.994Z,71.43
2023-04-15T02:21:55.471Z,71.61
2023-04-15T02:24:47.588Z,71.73
2023-04-15T02:27:43.358Z,71.91
2023-04-15T02:30:36.206Z,72.07
2023-04-15T02:33:32.627Z,72.20
2023-04-15T02:36:32.133Z,72.37
2023-04-15T02:39:29.069Z,72.45
2023-04-15T02:42:22.884Z,72.52
2023-04-15T02:45:20.497Z,72.60
2023-04-15T02:48:19.136Z,72.79
2023-04-15T02:51:19.981Z,73.08
2023-04-15T02:54:26.064Z,73.11
2023-04-15T02:57:17.645Z,73.14
2023-04-15T03:00:18.043Z,73.26
2023-04-15T03:03:11.731Z,73.26
2023-04-15T03:06:07.121Z,73.24
2023-04-15T03:09:00.599Z,73.38
2023-04-15T03:11:57.153Z,73.30
2023-04-15T03:14:48.421Z,73.25
2023-04-15T03:17:49.863Z,73.31
2023-04-15T03:20:41.418Z,73.26
2023-04-15T03:23:42.192Z,73.36
2023-04-15T03:26:40.293Z,73.43
2023-04-15T03:29:51.895Z,73.57
2023-04-15T03:32:54.933Z,73.65
2023-04-15T03:35:48.005Z,73.72
2023-04-15T03:38:41.466Z,73.81
2023-04-15T03:41:38.046Z,74.15
2023-04-15T03:44:40.231Z,74.53
2023-04-15T03:47:51.158Z,74.73
2023-04-15T03:50:47.408Z,75.00
2023-04-15T03:53:43.474Z,75.05
2023-04-15T03:56:41.704Z,75.27
2023-04-15T03:59:32.349Z,75.55
2023-04-15T04:02:43.627Z,75.81
2023-04-15T04:05:45.707Z,75.83
2023-04-15T04:08:47.493Z,75.88
2023-04-15T04:11:58.009Z,75.92
2023-04-15T04:15:09.731Z,76.00
2023-04-15T04:18:09.596Z,75.95
2023-04-15T04:21:05.660Z,75.89
2023-04-15T04:24:05.473Z,75.98
2023-04-15T04:27:16.288Z,76.09
2023-04-15T04:30:10.210Z,76.15
2023-04-15T04:33:11.868Z,76.14
2023-04-15T04:36:08.838Z,76.10
2023-04-15T04:39:05.422Z,76.20
2023-04-15T04:42:03.788Z,76.33
2023-04-15T04:44:59.671Z,76.37
2023-04-15T04:47:56.047Z,76.40
2023-04-15T04:50:56.803Z,76.71
2023-04-15T04:53:58.209Z,76.93
2023-04-15T04:56:53.927Z,76.98
2023-04-15T04:59:50.204Z,77.10
2023-04-15T05:02:44.337Z,77.31
2023-04-15T05:05:46.730Z,77.46
2023-04-15T05:08:47.267Z,77.52
2023-04-15T05:11:43.067Z,77.67
2023-04-15T05:14:46.925Z,77.70
2023-04-15T05:17:45.184Z,77.95
2023-04-15T05:20:40.744Z,77.94
2023-04-15T05:23:35.020Z,78.03
2023-04-15T05:26:31.766Z,78.26
2023-04-15T05:29:33.354Z,78.25
2023-04-15T05:32:28.806Z,78.36
2023-04-15T05:35:25.140Z,78.48
2023-04-15T05:38:20.683Z,78.55
2023-04-15T05:41:22.627Z,78.68
2023-04-15T05:44:20.540Z,78.73
2023-04-15T05:47:21.951Z,78.95
2023-04-15T05:50:25.630Z,79.06
2023-04-15T05:53:22.364Z,78.91
2023-04-15T05:56:17.735Z,78.82
2023-04-15T05:59:13.343Z,78.74
2023-04-15T06:02:15.367Z,78.61
2023-04-15T06:05:19.293Z,78.51
2023-04-15T06:08:30.482Z,78.52
2023-04-15T06:11:24.336Z,78.53
2023-04-15T06:14:17.792Z,78.55
2023-04-15T06:17:08.925Z,78.70
2023-04-15T06:20:02.900Z,78.86
2023-04-15T06:23:10.259Z,78.94
2023-04-15T06:26:07.454Z,78.94
2023-04-15T06:29:18.194Z,79.05
2023-04-15T06:32:29.420Z,79.15
2023-04-15T06:35:40.780Z,79.16
2023-04-15T06:42:06.164Z,79.35
2023-04-15T06:44:56.942Z,79.38
2023-04-15T06:47:53.024Z,79.41
2023-04-15T06:50:44.100Z,79.45
2023-04-15T06:53:45.223Z,79.58
2023-04-15T06:56:36.524Z,79.69
2023-04-15T06:59:31.012Z,79.89
2023-04-15T07:02:22.118Z,79.85
2023-04-15T07:05:19.173Z,79.95
2023-04-15T07:08:10.142Z,79.83
2023-04-15T07:11:11.908Z,79.67
2023-04-15T07:14:07.587Z,79.36
2023-04-15T07:17:02.494Z,78.42
2023-04-15T07:19:59.004Z,77.28
2023-04-15T07:22:54.034Z,76.82
2023-04-15T07:25:53.932Z,75.61
2023-04-15T07:28:47.690Z,72.68
2023-04-15T07:31:38.263Z,70.75
2023-04-15T07:34:30.680Z,69.99
2023-04-15T07:37:22.091Z,67.80
2023-04-15T07:40:16.814Z,65.37
2023-04-15T07:43:07.745Z,63.45
2023-04-15T07:45:58.916Z,61.47
2023-04-15T07:48:54.997Z,59.74
2023-04-15T07:51:46.128Z,58.47
2023-04-15T07:54:36.910Z,56.52
2023-04-15T07:57:27.564Z,55.03
2023-04-15T08:00:18.456Z,52.06
2023-04-15T08:03:09.131Z,49.78
2023-04-15T08:06:00.132Z,49.08
2023-04-15T08:08:51.095Z,47.23
2023-04-15T08:11:42.416Z,45.88
2023-04-15T08:14:33.012Z,44.81
2023-04-15T08:17:23.953Z,43.27
2023-04-15T08:20:17.633Z,40.92
2023-04-15T08:23:08.911Z,40.12
2023-04-15T08:25:59.633Z,39.65
2023-04-15T08:28:50.529Z,38.86
2023-04-15T08:31:41.487Z,37.52
2023-04-15T08:34:32.398Z,36.64
2023-04-15T08:37:23.375Z,35.75
2023-04-15T08:40:17.888Z,34.39
2023-04-15T08:43:10.773Z,33.48
2023-04-15T08:46:02.107Z,32.45
2023-04-15T08:48:53.557Z,31.28
2023-04-15T08:51:44.228Z,30.79
2023-04-15T08:54:35.173Z,30.21
2023-04-15T08:57:27.785Z,29.48
2023-04-15T09:00:18.671Z,28.79
2023-04-15T09:03:09.970Z,28.32
2023-04-15T09:06:01.228Z,27.54
2023-04-15T09:08:53.127Z,27.24
2023-04-15T09:11:43.843Z,27.20
2023-04-15T09:14:35.197Z,26.76
2023-04-15T09:17:26.828Z,26.77
2023-04-15T09:20:18.946Z,26.84
2023-04-15T09:23:15.332Z,26.29
2023-04-15T09:26:06.555Z,26.67
2023-04-15T09:29:03.770Z,26.25
2023-04-15T09:31:54.843Z,25.48
2023-04-15T09:34:46.151Z,24.92
2023-04-15T09:37:39.632Z,24.20
2023-04-15T09:40:37.727Z,23.60
2023-04-15T09:43:40.245Z,22.72
2023-04-15T09:46:46.595Z,22.12
2023-04-15T09:49:39.548Z,21.43
2023-04-15T09:52:31.234Z,21.37
2023-04-15T09:55:23.845Z,20.92
2023-04-15T09:58:20.793Z,20.16
2023-04-15T10:01:12.055Z,19.67
2023-04-15T10:04:04.769Z,19.33
2023-04-15T10:06:55.826Z,18.89
2023-04-15T10:09:47.463Z,18.92
2023-04-15T10:12:38.739Z,19.07
2023-04-15T10:15:30.346Z,18.84
2023-04-15T10:18:23.977Z,18.49
2023-04-15T10:21:19.019Z,17.75
2023-04-15T10:24:09.999Z,17.95
2023-04-15T10:27:11.508Z,17.68
2023-04-15T10:30:05.163Z,17.40
2023-04-15T10:32:56.618Z,17.29
2023-04-15T10:35:51.954Z,17.17
2023-04-15T10:45:51.674Z,16.80
2023-04-15T10:48:48.334Z,16.48
2023-04-15T10:59:38.738Z,17.07
2023-04-15T11:02:48.781Z,17.18
2023-04-15T11:06:02.589Z,17.69
2023-04-15T11:09:34.259Z,17.63
2023-04-15T11:12:37.394Z,17.92
2023-04-15T11:15:52.399Z,18.19
2023-04-15T11:18:59.791Z,18.13
2023-04-15T11:22:33.132Z,18.21
2023-04-15T11:25:28.563Z,18.80
2023-04-15T11:28:24.068Z,18.91
2023-04-15T11:31:24.654Z,19.18
2023-04-15T11:34:26.398Z,19.29
2023-04-15T11:37:50.192Z,19.18
2023-04-15T11:40:49.160Z,19.39
2023-04-15T11:44:20.876Z,19.76
2023-04-15T11:47:25.274Z,20.42
2023-04-15T11:50:26.425Z,20.92
2023-04-15T11:53:30.050Z,21.73
2023-04-15T11:56:24.576Z,22.10
2023-04-15T11:59:18.035Z,22.45
2023-04-15T12:02:14.790Z,22.25
2023-04-15T12:05:09.092Z,22.41
2023-04-15T12:08:47.104Z,22.58
2023-04-15T12:12:31.682Z,22.70
2023-04-15T12:16:35.242Z,23.11
2023-04-15T12:20:30.040Z,24.09
2023-04-15T12:23:42.234Z,25.56
2023-04-15T12:27:00.184Z,26.77
2023-04-15T12:29:48.801Z,27.35
2023-04-15T12:32:43.585Z,27.17
2023-04-15T12:35:55.663Z,27.49
2023-04-15T12:39:46.899Z,28.00
2023-04-15T12:43:05.465Z,28.56
2023-04-15T12:46:36.194Z,29.57
2023-04-15T12:49:23.566Z,29.78
2023-04-15T12:52:14.357Z,29.96
2023-04-15T12:55:05.096Z,30.51
2023-04-15T12:57:55.857Z,30.87
2023-04-15T13:00:47.160Z,31.40
2023-04-15T13:03:39.372Z,32.21
2023-04-15T13:06:30.805Z,32.87
2023-04-15T13:09:23.699Z,33.29
2023-04-15T13:12:15.586Z,33.75
2023-04-15T13:15:27.847Z,34.22
2023-04-15T13:18:31.284Z,34.45
2023-04-15T13:21:22.353Z,34.51
2023-04-15T13:24:39.714Z,34.51
2023-04-15T13:27:32.514Z,34.75
2023-04-15T13:30:23.000Z,34.87
2023-04-15T13:33:14.049Z,34.70
2023-04-15T13:36:04.998Z,34.43
2023-04-15T13:38:55.960Z,34.80
2023-04-15T13:41:48.716Z,34.70
2023-04-15T13:44:41.963Z,34.80
2023-04-15T13:47:33.198Z,34.74
2023-04-15T13:50:24.324Z,34.91
2023-04-15T13:53:15.150Z,35.12
2023-04-15T13:56:06.509Z,34.69
2023-04-15T13:58:59.150Z,34.61
2023-04-15T14:01:49.675Z,34.35
2023-04-15T14:04:40.333Z,34.28
2023-04-15T14:07:33.582Z,34.48
2023-04-15T14:10:29.059Z,34.37
2023-04-15T14:13:39.919Z,34.45
2023-04-15T14:16:33.087Z,34.58
2023-04-15T14:19:33.102Z,35.08
2023-04-15T14:22:23.921Z,35.51
2023-04-15T14:25:20.181Z,35.68
2023-04-15T14:28:21.172Z,36.30
2023-04-15T14:31:12.558Z,36.40
2023-04-15T14:34:03.637Z,36.23
2023-04-15T14:36:54.396Z,36.37
2023-04-15T14:39:45.527Z,36.62
2023-04-15T14:42:38.153Z,36.74
2023-04-15T14:45:28.941Z,36.63
2023-04-15T14:48:19.951Z,36.44
2023-04-15T14:51:10.856Z,36.50
2023-04-15T14:54:04.458Z,36.45
2023-04-15T14:56:56.081Z,36.62
2023-04-15T14:59:46.689Z,36.64
2023-04-15T15:02:40.621Z,36.57
2023-04-15T15:05:31.541Z,36.70
2023-04-15T15:08:22.486Z,36.73
2023-04-15T15:11:13.197Z,36.74
2023-04-15T15:14:03.959Z,36.95
2023-04-15T15:16:54.748Z,37.31
2023-04-15T15:20:06.283Z,37.72
2023-04-15T15:22:57.159Z,38.22
2023-04-15T15:25:49.074Z,38.40
2023-04-15T15:28:39.816Z,38.49
2023-04-15T15:31:59.002Z,38.66
2023-04-15T15:34:49.481Z,38.80
2023-04-15T15:37:40.362Z,38.86
2023-04-15T15:40:31.150Z,39.21
2023-04-15T15:43:24.243Z,39.62
2023-04-15T15:46:14.965Z,40.03
2023-04-15T15:49:06.010Z,40.41
2023-04-15T15:51:59.288Z,40.70
2023-04-15T15:54:50.128Z,41.12
2023-04-15T15:57:40.969Z,41.34
2023-04-15T16:00:34.673Z,41.61
2023-04-15T16:03:25.653Z,42.03
2023-04-15T16:06:16.765Z,42.23
2023-04-15T16:09:07.528Z,42.57
2023-04-15T16:11:58.936Z,42.86
2023-04-15T16:14:49.581Z,43.27
2023-04-15T16:17:40.662Z,43.70
2023-04-15T16:20:31.304Z,43.88
2023-04-15T16:23:21.937Z,43.91
2023-04-15T16:26:12.835Z,43.78
2023-04-15T16:29:04.708Z,43.60
2023-04-15T16:31:56.462Z,43.86
2023-04-15T16:34:48.117Z,43.96
2023-04-15T16:37:41.643Z,44.11
2023-04-15T16:40:33.236Z,44.37
2023-04-15T16:43:23.942Z,44.62
2023-04-15T16:46:17.857Z,44.64
2023-04-15T16:49:08.542Z,44.48
2023-04-15T16:52:02.808Z,44.56
2023-04-15T16:54:53.840Z,44.39
2023-04-15T16:58:02.335Z,43.85
2023-04-15T17:00:54.710Z,43.54
2023-04-15T17:03:48.510Z,43.61
2023-04-15T17:06:39.183Z,43.78
2023-04-15T17:09:30.040Z,43.40
2023-04-15T17:12:20.687Z,43.11
2023-04-15T17:15:11.794Z,43.15
2023-04-15T17:18:02.416Z,43.39
2023-04-15T17:20:56.342Z,43.56
2023-04-15T17:23:46.956Z,43.97
2023-04-15T17:26:41.399Z,44.62
2023-04-15T17:29:36.886Z,44.72
2023-04-15T17:32:34.585Z,44.70
2023-04-15T17:35:28.624Z,45.37
2023-04-15T17:38:22.025Z,45.47
2023-04-15T17:41:16.590Z,45.59
2023-04-15T17:44:07.358Z,45.53
2023-04-15T17:46:58.034Z,45.41
2023-04-15T17:49:52.211Z,45.14
2023-04-15T17:52:42.959Z,45.03
2023-04-15T17:55:34.464Z,45.21
2023-04-15T17:58:30.267Z,45.39
2023-04-15T18:01:22.645Z,45.46
2023-04-15T18:04:13.620Z,45.52
2023-04-15T18:07:09.688Z,45.56
2023-04-15T18:10:03.483Z,45.60
2023-04-15T18:12:57.336Z,45.89
2023-04-15T18:15:51.507Z,45.84
2023-04-15T18:18:42.170Z,46.23
2023-04-15T18:21:36.141Z,46.44
2023-04-15T18:24:31.555Z,45.84
2023-04-15T18:27:24.635Z,45.97
2023-04-15T18:30:15.674Z,46.10
2023-04-15T18:33:08.906Z,46.11
2023-04-15T18:35:59.632Z,46.45
2023-04-15T18:38:52.771Z,47.28
2023-04-15T18:41:43.708Z,47.44
2023-04-15T18:44:34.351Z,47.84
2023-04-15T18:47:27.155Z,48.68
2023-04-15T18:50:18.182Z,49.54
2023-04-15T18:53:08.780Z,50.40
2023-04-15T18:56:01.862Z,50.77
2023-04-15T18:59:08.611Z,51.22
2023-04-15T19:02:06.528Z,52.09
2023-04-15T19:04:57.596Z,52.87
2023-04-15T19:07:48.408Z,53.11
2023-04-15T19:10:39.329Z,53.77
2023-04-15T19:13:32.465Z,54.61
2023-04-15T19:16:23.573Z,55.47
2023-04-15T19:19:15.314Z,56.05
2023-04-15T19:22:06.857Z,56.22
2023-04-15T19:24:57.704Z,56.78
2023-04-15T19:27:50.558Z,57.35
2023-04-15T19:30:43.600Z,57.67
2023-04-15T19:33:35.209Z,58.14
2023-04-15T19:36:28.307Z,58.68
2023-04-15T19:39:31.827Z,59.52
2023-04-15T19:46:40.745Z,61.88
2023-04-15T19:49:34.243Z,63.05
2023-04-15T19:52:25.796Z,63.77
2023-04-15T19:55:16.684Z,64.76
2023-04-15T19:58:07.364Z,65.78
2023-04-15T20:00:58.034Z,66.94
2023-04-15T20:03:48.928Z,67.92
2023-04-15T20:06:39.936Z,68.75
2023-04-15T20:09:30.864Z,69.54
2023-04-15T20:12:50.008Z,70.39
2023-04-15T20:15:32.279Z,71.23
2023-04-15T20:18:22.999Z,72.02
2023-04-15T20:21:13.683Z,72.71
2023-04-15T20:24:04.739Z,73.09
2023-04-15T20:26:58.386Z,73.37
2023-04-15T20:29:58.437Z,73.79
2023-04-15T20:33:00.692Z,74.26
2023-04-15T20:35:57.178Z,74.46
2023-04-15T20:38:53.479Z,74.71
2023-04-15T20:41:44.122Z,75.42
2023-04-15T20:44:35.755Z,75.84
2023-04-15T20:47:26.506Z,75.89
2023-04-15T20:50:17.373Z,76.17
2023-04-15T20:53:28.350Z,76.54
2023-04-15T20:56:18.975Z,76.84
2023-04-15T20:59:30.308Z,77.20
2023-04-15T21:02:25.297Z,77.59
2023-04-15T21:05:19.157Z,77.79
2023-04-15T21:08:14.723Z,78.00
2023-04-15T21:11:11.780Z,78.01
2023-04-15T21:14:02.831Z,78.08
2023-04-15T21:16:53.853Z,78.08
2023-04-15T21:19:44.778Z,78.45
2023-04-15T21:22:35.205Z,78.45
2023-04-15T21:25:43.088Z,78.82
2023-04-15T21:28:40.752Z,79.61
2023-04-15T21:31:31.852Z,79.80
2023-04-15T21:34:46.742Z,79.94
2023-04-15T21:37:38.117Z,80.07
2023-04-15T21:40:40.792Z,80.09
2023-04-15T21:43:36.225Z,79.63
2023-04-15T21:46:32.825Z,79.25
2023-04-15T21:49:46.710Z,79.26
2023-04-15T21:52:40.108Z,79.55
2023-04-15T21:55:41.154Z,79.90
2023-04-15T21:58:52.424Z,80.05
2023-04-15T22:01:51.165Z,80.17
2023-04-15T22:04:42.076Z,80.65
2023-04-15T22:07:45.670Z,80.84
2023-04-15T22:10:40.275Z,80.82
2023-04-15T22:13:30.952Z,81.03
2023-04-15T22:16:42.308Z,81.11
2023-04-15T22:19:46.984Z,81.47
2023-04-15T22:22:49.095Z,81.69
2023-04-15T22:26:05.933Z,81.61
2023-04-15T22:29:16.908Z,81.78
2023-04-15T22:32:18.436Z,81.74
2023-04-15T22:35:15.190Z,82.08
2023-04-15T22:38:26.122Z,82.35
2023-04-15T22:41:16.724Z,82.57
2023-04-15T22:44:10.294Z,82.67
2023-04-15T22:47:05.999Z,82.83
2023-04-15T22:50:02.382Z,83.07
2023-04-15T22:52:55.854Z,83.32
2023-04-15T22:55:57.405Z,83.44
2023-04-15T22:58:54.025Z,83.71
2023-04-15T23:01:45.342Z,83.92
2023-04-15T23:04:41.090Z,84.07
2023-04-15T23:07:37.388Z,83.78
2023-04-15T23:10:31.183Z,83.68
2023-04-15T23:13:22.168Z,84.18
2023-04-15T23:16:18.821Z,84.51
2023-04-15T23:19:16.754Z,84.68
2023-04-15T23:22:12.267Z,84.81
2023-04-15T23:25:15.983Z,84.80
2023-04-15T23:28:09.942Z,84.45
2023-04-15T23:31:00.944Z,83.92
2023-04-15T23:33:51.653Z,83.94
2023-04-15T23:36:42.469Z,84.09
2023-04-15T23:39:36.459Z,84.10
2023-04-15T23:42:27.309Z,83.96
2023-04-15T23:45:21.040Z,83.91
2023-04-15T23:48:11.917Z,83.96
2023-04-15T23:51:07.158Z,83.93
2023-04-15T23:54:01.425Z,83.95
2023-04-15T23:56:56.592Z,83.89
2023-04-15T23:59:50.343Z,84.22
